sensor_id;sensor_type;location;lat;lon;timestamp;pressure;altitude;pressure_sealevel;temperature;humidity
6869;BME280;3473;42.604;23.496;2022-08-04T00:01:21;17303.88;;;-140.19;75.10
6869;BME280;3473;42.604;23.496;2022-08-04T00:03:09;17301.94;;;-140.19;75.37
6869;BME280;3473;42.604;23.496;2022-08-04T00:04:44;17278.66;;;-140.19;75.26
6869;BME280;3473;42.604;23.496;2022-08-04T00:06:27;17606.44;;;-140.19;75.34
6869;BME280;3473;42.604;23.496;2022-08-04T00:08:06;17261.22;;;-140.19;75.46
6869;BME280;3473;42.604;23.496;2022-08-04T00:09:47;17204.97;;;-140.19;75.76
6869;BME280;3473;42.604;23.496;2022-08-04T00:11:22;17179.75;;;-140.19;75.86
6869;BME280;3473;42.604;23.496;2022-08-04T00:12:55;17183.63;;;-140.19;75.92
6869;BME280;3473;42.604;23.496;2022-08-04T00:14:31;17102.19;;;-140.19;76.37
6869;BME280;3473;42.604;23.496;2022-08-04T00:16:06;17067.28;;;-140.19;76.43
6869;BME280;3473;42.604;23.496;2022-08-04T00:17:39;17100.25;;;-140.19;76.66
6869;BME280;3473;42.604;23.496;2022-08-04T00:19:16;16925.72;;;-140.19;76.70
6869;BME280;3473;42.604;23.496;2022-08-04T00:20:49;16981.97;;;-140.19;76.73
6869;BME280;3473;42.604;23.496;2022-08-04T00:22:27;16972.25;;;-140.19;76.49
6869;BME280;3473;42.604;23.496;2022-08-04T00:24:00;16980.00;;;-140.19;76.66
6869;BME280;3473;42.604;23.496;2022-08-04T00:25:33;16929.59;;;-140.19;76.87
6869;BME280;3473;42.604;23.496;2022-08-04T00:27:07;16898.56;;;-140.19;77.05
6869;BME280;3473;42.604;23.496;2022-08-04T00:28:39;16852.03;;;-140.19;77.14
6869;BME280;3473;42.604;23.496;2022-08-04T00:30:12;16807.44;;;-140.19;77.30
6869;BME280;3473;42.604;23.496;2022-08-04T00:31:43;16735.69;;;-140.19;77.44
6869;BME280;3473;42.604;23.496;2022-08-04T00:33:18;16745.38;;;-140.19;77.73
6869;BME280;3473;42.604;23.496;2022-08-04T00:34:50;16660.06;;;-140.19;77.80
6869;BME280;3473;42.604;23.496;2022-08-04T00:36:23;16679.44;;;-140.19;78.02
6869;BME280;3473;42.604;23.496;2022-08-04T00:37:56;16663.94;;;-140.19;77.97
6869;BME280;3473;42.604;23.496;2022-08-04T00:39:28;16623.22;;;-140.19;78.12
6869;BME280;3473;42.604;23.496;2022-08-04T00:41:08;16619.34;;;-140.19;78.22
6869;BME280;3473;42.604;23.496;2022-08-04T00:42:54;16518.50;;;-140.19;78.46
6869;BME280;3473;42.604;23.496;2022-08-04T00:44:35;16561.16;;;-140.19;78.53
6869;BME280;3473;42.604;23.496;2022-08-04T00:46:31;16489.44;;;-140.19;79.03
6869;BME280;3473;42.604;23.496;2022-08-04T00:48:13;16297.47;;;-140.19;79.38
6869;BME280;3473;42.604;23.496;2022-08-04T00:50:01;16278.09;;;-140.19;79.62
6869;BME280;3473;42.604;23.496;2022-08-04T00:51:43;16272.28;;;-140.19;79.19
6869;BME280;3473;42.604;23.496;2022-08-04T00:53:27;16175.34;;;-140.19;79.60
6869;BME280;3473;42.604;23.496;2022-08-04T00:55:04;16161.75;;;-140.19;79.59
6869;BME280;3473;42.604;23.496;2022-08-04T00:57:02;16165.66;;;-140.19;79.58
6869;BME280;3473;42.604;23.496;2022-08-04T00:59:01;16188.91;;;-140.19;79.57
6869;BME280;3473;42.604;23.496;2022-08-04T01:00:41;16227.69;;;-140.19;79.26
6869;BME280;3473;42.604;23.496;2022-08-04T01:02:20;16163.72;;;-140.19;79.55
6869;BME280;3473;42.604;23.496;2022-08-04T01:04:02;16181.16;;;-140.19;79.49
6869;BME280;3473;42.604;23.496;2022-08-04T01:05:40;16159.81;;;-140.19;79.53
6869;BME280;3473;42.604;23.496;2022-08-04T01:09:26;16088.09;;;-140.19;79.49
6869;BME280;3473;42.604;23.496;2022-08-04T01:11:06;16078.41;;;-140.19;79.69
6869;BME280;3473;42.604;23.496;2022-08-04T01:13:04;16099.72;;;-140.19;79.46
6869;BME280;3473;42.604;23.496;2022-08-04T01:14:53;16084.22;;;-140.19;79.28
6869;BME280;3473;42.604;23.496;2022-08-04T01:16:26;16148.19;;;-140.19;79.36
6869;BME280;3473;42.604;23.496;2022-08-04T01:18:04;16103.59;;;-140.19;79.28
6869;BME280;3473;42.604;23.496;2022-08-04T01:19:52;16049.31;;;-140.19;79.42
6869;BME280;3473;42.604;23.496;2022-08-04T01:21:49;16020.25;;;-140.19;79.85
6869;BME280;3473;42.604;23.496;2022-08-04T01:23:52;15936.88;;;-140.19;79.84
6869;BME280;3473;42.604;23.496;2022-08-04T01:28:02;16047.38;;;-140.19;79.10
6869;BME280;3473;42.604;23.496;2022-08-04T01:29:44;15969.84;;;-140.19;79.67
6869;BME280;3473;42.604;23.496;2022-08-04T01:31:26;15936.88;;;-140.19;79.69
6869;BME280;3473;42.604;23.496;2022-08-04T01:33:02;15880.66;;;-140.19;80.17
6869;BME280;3473;42.604;23.496;2022-08-04T01:34:41;15785.66;;;-140.19;80.37
6869;BME280;3473;42.604;23.496;2022-08-04T01:36:13;15818.63;;;-140.19;80.47
6869;BME280;3473;42.604;23.496;2022-08-04T01:37:48;15814.75;;;-140.19;80.03
6869;BME280;3473;42.604;23.496;2022-08-04T01:39:28;15834.13;;;-140.19;79.96
6869;BME280;3473;42.604;23.496;2022-08-04T01:41:13;15797.31;;;-140.19;80.29
6869;BME280;3473;42.604;23.496;2022-08-04T01:42:48;15706.19;;;-140.19;80.52
6869;BME280;3473;42.604;23.496;2022-08-04T01:44:23;15696.50;;;-140.19;80.68
6869;BME280;3473;42.604;23.496;2022-08-04T01:45:58;15558.88;;;-140.19;81.21
6869;BME280;3473;42.604;23.496;2022-08-04T01:47:33;15504.59;;;-140.19;81.35
6869;BME280;3473;42.604;23.496;2022-08-04T01:49:06;15553.06;;;-140.19;81.10
6869;BME280;3473;42.604;23.496;2022-08-04T01:50:42;15551.13;;;-140.19;80.97
6869;BME280;3473;42.604;23.496;2022-08-04T01:52:16;15690.69;;;-140.19;80.50
6869;BME280;3473;42.604;23.496;2022-08-04T01:53:47;15615.09;;;-140.19;80.52
6869;BME280;3473;42.604;23.496;2022-08-04T01:55:18;15750.78;;;-140.19;80.61
6869;BME280;3473;42.604;23.496;2022-08-04T01:56:52;15646.09;;;-140.19;80.57
6869;BME280;3473;42.604;23.496;2022-08-04T01:58:24;15580.19;;;-140.19;80.87
6869;BME280;3473;42.604;23.496;2022-08-04T01:59:58;15620.91;;;-140.19;80.86
6869;BME280;3473;42.604;23.496;2022-08-04T02:01:35;15595.69;;;-140.19;80.98
6869;BME280;3473;42.604;23.496;2022-08-04T02:03:08;15556.94;;;-140.19;80.68
6869;BME280;3473;42.604;23.496;2022-08-04T02:04:41;15543.38;;;-140.19;80.98
6869;BME280;3473;42.604;23.496;2022-08-04T02:06:23;15527.84;;;-140.19;80.77
6869;BME280;3473;42.604;23.496;2022-08-04T02:08:10;15543.38;;;-140.19;80.60
6869;BME280;3473;42.604;23.496;2022-08-04T02:09:52;15516.22;;;-140.19;81.04
6869;BME280;3473;42.604;23.496;2022-08-04T02:11:29;15469.72;;;-140.19;81.18
6869;BME280;3473;42.604;23.496;2022-08-04T02:13:09;15504.59;;;-140.19;81.13
6869;BME280;3473;42.604;23.496;2022-08-04T02:14:49;15514.28;;;-140.19;80.69
6869;BME280;3473;42.604;23.496;2022-08-04T02:16:31;15539.50;;;-140.19;80.80
6869;BME280;3473;42.604;23.496;2022-08-04T02:18:14;15481.34;;;-140.19;80.83
6869;BME280;3473;42.604;23.496;2022-08-04T02:20:11;15491.03;;;-140.19;80.76
6869;BME280;3473;42.604;23.496;2022-08-04T02:21:47;15492.97;;;-140.19;80.64
6869;BME280;3473;42.604;23.496;2022-08-04T02:23:28;15529.78;;;-140.19;80.60
6869;BME280;3473;42.604;23.496;2022-08-04T02:25:06;15463.91;;;-140.19;80.60
6869;BME280;3473;42.604;23.496;2022-08-04T02:26:40;15483.28;;;-140.19;80.85
6869;BME280;3473;42.604;23.496;2022-08-04T02:28:21;15427.06;;;-140.19;80.91
6869;BME280;3473;42.604;23.496;2022-08-04T02:29:58;15399.94;;;-140.19;81.15
6869;BME280;3473;42.604;23.496;2022-08-04T02:31:32;15409.63;;;-140.19;81.39
6869;BME280;3473;42.604;23.496;2022-08-04T02:33:06;15384.44;;;-140.19;81.33
6869;BME280;3473;42.604;23.496;2022-08-04T02:34:47;15456.13;;;-140.19;81.01
6869;BME280;3473;42.604;23.496;2022-08-04T02:36:24;15388.31;;;-140.19;81.05
6869;BME280;3473;42.604;23.496;2022-08-04T02:38:05;15266.19;;;-140.19;81.81
6869;BME280;3473;42.604;23.496;2022-08-04T02:39:43;14589.81;;;-140.19;82.12
6869;BME280;3473;42.604;23.496;2022-08-04T02:41:15;15072.38;;;-140.19;82.70
6869;BME280;3473;42.604;23.496;2022-08-04T02:42:47;14882.44;;;-140.19;83.18
6869;BME280;3473;42.604;23.496;2022-08-04T02:44:22;13262.69;;;-140.19;83.42
6869;BME280;3473;42.604;23.496;2022-08-04T02:45:55;14779.72;;;-140.19;83.83
6869;BME280;3473;42.604;23.496;2022-08-04T02:47:28;14723.53;;;-140.19;83.60
6869;BME280;3473;42.604;23.496;2022-08-04T02:49:04;14762.28;;;-140.19;83.59
6869;BME280;3473;42.604;23.496;2022-08-04T02:50:36;14729.34;;;-140.19;83.77
6869;BME280;3473;42.604;23.496;2022-08-04T02:52:09;14742.91;;;-140.19;83.20
6869;BME280;3473;42.604;23.496;2022-08-04T02:53:42;14824.31;;;-140.19;83.33
6869;BME280;3473;42.604;23.496;2022-08-04T02:55:16;14930.91;;;-140.19;83.27
6869;BME280;3473;42.604;23.496;2022-08-04T02:56:50;14888.25;;;-140.19;82.73
6869;BME280;3473;42.604;23.496;2022-08-04T02:58:22;14913.44;;;-140.19;83.02
6869;BME280;3473;42.604;23.496;2022-08-04T03:00:04;14872.75;;;-140.19;83.06
6869;BME280;3473;42.604;23.496;2022-08-04T03:01:40;14894.06;;;-140.19;83.03
6869;BME280;3473;42.604;23.496;2022-08-04T03:03:21;14940.59;;;-140.19;82.58
6869;BME280;3473;42.604;23.496;2022-08-04T03:04:57;14994.84;;;-140.19;82.16
6869;BME280;3473;42.604;23.496;2022-08-04T03:06:52;14990.97;;;-140.19;82.38
6869;BME280;3473;42.604;23.496;2022-08-04T03:10:56;14961.91;;;-140.19;82.66
6869;BME280;3473;42.604;23.496;2022-08-04T03:13:02;14897.94;;;-140.19;82.65
6869;BME280;3473;42.604;23.496;2022-08-04T03:14:57;14886.31;;;-140.19;83.07
6869;BME280;3473;42.604;23.496;2022-08-04T03:19:02;14938.66;;;-140.19;83.25
6869;BME280;3473;42.604;23.496;2022-08-04T03:21:06;14830.13;;;-140.19;83.40
6869;BME280;3473;42.604;23.496;2022-08-04T03:23:12;14913.44;;;-140.19;83.29
6869;BME280;3473;42.604;23.496;2022-08-04T03:30:00;14985.16;;;-140.19;82.65
6869;BME280;3473;42.604;23.496;2022-08-04T03:32:27;14932.84;;;-140.19;82.95
6869;BME280;3473;42.604;23.496;2022-08-04T03:34:24;14934.78;;;-140.19;82.66
6869;BME280;3473;42.604;23.496;2022-08-04T03:38:31;14905.69;;;-140.19;83.30
6869;BME280;3473;42.604;23.496;2022-08-04T03:40:50;14890.19;;;-140.19;83.61
6869;BME280;3473;42.604;23.496;2022-08-04T03:47:20;14915.38;;;-140.19;83.10
6869;BME280;3473;42.604;23.496;2022-08-04T03:51:27;15060.75;;;-140.19;82.66
6869;BME280;3473;42.604;23.496;2022-08-04T03:53:38;15041.38;;;-140.19;82.43
6869;BME280;3473;42.604;23.496;2022-08-04T03:55:38;15111.13;;;-140.19;81.78
6869;BME280;3473;42.604;23.496;2022-08-04T03:57:30;15163.47;;;-140.19;81.56
6869;BME280;3473;42.604;23.496;2022-08-04T03:59:24;15279.75;;;-140.19;81.01
6869;BME280;3473;42.604;23.496;2022-08-04T04:01:08;15273.94;;;-140.19;81.20
6869;BME280;3473;42.604;23.496;2022-08-04T04:03:27;15293.31;;;-140.19;81.46
6869;BME280;3473;42.604;23.496;2022-08-04T04:05:26;15353.41;;;-140.19;81.47
6869;BME280;3473;42.604;23.496;2022-08-04T04:09:29;15446.44;;;-140.19;80.50
6869;BME280;3473;42.604;23.496;2022-08-04T04:11:22;15615.09;;;-140.19;80.07
6869;BME280;3473;42.604;23.496;2022-08-04T04:13:18;15617.03;;;-140.19;79.84
6869;BME280;3473;42.604;23.496;2022-08-04T04:15:02;15644.16;;;-140.19;79.43
6869;BME280;3473;42.604;23.496;2022-08-04T04:18:51;15692.63;;;-140.19;79.77
6869;BME280;3473;42.604;23.496;2022-08-04T04:20:52;15636.41;;;-140.19;80.05
6869;BME280;3473;42.604;23.496;2022-08-04T04:22:43;15649.97;;;-140.19;80.15
6869;BME280;3473;42.604;23.496;2022-08-04T04:24:32;15576.31;;;-140.19;80.22
6869;BME280;3473;42.604;23.496;2022-08-04T04:26:21;15655.78;;;-140.19;79.47
6869;BME280;3473;42.604;23.496;2022-08-04T04:28:24;15770.16;;;-140.19;78.79
6869;BME280;3473;42.604;23.496;2022-08-04T04:30:06;15760.47;;;-140.19;79.21
6869;BME280;3473;42.604;23.496;2022-08-04T04:31:48;15710.06;;;-140.19;79.57
6869;BME280;3473;42.604;23.496;2022-08-04T04:33:36;15712.00;;;-140.19;79.81
6869;BME280;3473;42.604;23.496;2022-08-04T04:35:21;15679.06;;;-140.19;79.85
6869;BME280;3473;42.604;23.496;2022-08-04T04:37:08;15630.59;;;-140.19;79.66
6869;BME280;3473;42.604;23.496;2022-08-04T04:39:00;15535.63;;;-140.19;78.94
6869;BME280;3473;42.604;23.496;2022-08-04T04:40:43;15754.66;;;-140.19;79.07
6869;BME280;3473;42.604;23.496;2022-08-04T04:42:32;15836.06;;;-140.19;79.67
6869;BME280;3473;42.604;23.496;2022-08-04T04:44:31;15768.22;;;-140.19;79.54
6869;BME280;3473;42.604;23.496;2022-08-04T04:46:12;15787.63;;;-140.19;79.20
6869;BME280;3473;42.604;23.496;2022-08-04T04:47:54;15923.31;;;-140.19;77.74
6869;BME280;3473;42.604;23.496;2022-08-04T04:49:32;16020.25;;;-140.19;76.49
6869;BME280;3473;42.604;23.496;2022-08-04T04:51:09;16000.84;;;-140.19;75.84
6869;BME280;3473;42.604;23.496;2022-08-04T04:52:46;16070.66;;;-140.19;75.68
6869;BME280;3473;42.604;23.496;2022-08-04T04:54:27;16070.66;;;-140.19;76.36
6869;BME280;3473;42.604;23.496;2022-08-04T04:56:04;16090.03;;;-140.19;76.62
6869;BME280;3473;42.604;23.496;2022-08-04T04:57:39;16111.34;;;-140.19;76.78
6869;BME280;3473;42.604;23.496;2022-08-04T04:59:15;16115.25;;;-140.19;77.09
6869;BME280;3473;42.604;23.496;2022-08-04T05:01:06;16107.47;;;-140.19;77.79
6869;BME280;3473;42.604;23.496;2022-08-04T05:02:58;16084.22;;;-140.19;77.51
6869;BME280;3473;42.604;23.496;2022-08-04T05:04:50;16074.53;;;-140.19;78.15
6869;BME280;3473;42.604;23.496;2022-08-04T05:06:49;16068.72;;;-140.19;77.91
6869;BME280;3473;42.604;23.496;2022-08-04T05:09:02;16080.34;;;-140.19;77.02
6869;BME280;3473;42.604;23.496;2022-08-04T05:10:48;16107.47;;;-140.19;76.63
6869;BME280;3473;42.604;23.496;2022-08-04T05:12:39;16155.94;;;-140.19;76.00
6869;BME280;3473;42.604;23.496;2022-08-04T05:14:17;16175.34;;;-140.19;76.19
6869;BME280;3473;42.604;23.496;2022-08-04T05:15:55;16196.66;;;-140.19;75.30
6869;BME280;3473;42.604;23.496;2022-08-04T05:17:32;16313.00;;;-140.19;73.06
6869;BME280;3473;42.604;23.496;2022-08-04T05:19:15;16303.28;;;-140.19;71.84
6869;BME280;3473;42.604;23.496;2022-08-04T05:20:55;16175.34;;;-140.19;72.30
6869;BME280;3473;42.604;23.496;2022-08-04T05:22:31;16371.16;;;-140.19;72.48
6869;BME280;3473;42.604;23.496;2022-08-04T05:24:09;16421.56;;;-140.19;72.01
6869;BME280;3473;42.604;23.496;2022-08-04T05:25:51;16400.25;;;-140.19;71.16
6869;BME280;3473;42.604;23.496;2022-08-04T05:27:29;16473.91;;;-140.19;71.23
6869;BME280;3473;42.604;23.496;2022-08-04T05:29:15;16435.13;;;-140.19;72.18
6869;BME280;3473;42.604;23.496;2022-08-04T05:30:51;16460.34;;;-140.19;72.75
6869;BME280;3473;42.604;23.496;2022-08-04T05:32:27;16406.06;;;-140.19;73.13
6869;BME280;3473;42.604;23.496;2022-08-04T05:34:05;16437.09;;;-140.19;73.36
6869;BME280;3473;42.604;23.496;2022-08-04T05:35:43;16433.19;;;-140.19;72.83
6869;BME280;3473;42.604;23.496;2022-08-04T05:37:18;16402.19;;;-140.19;72.83
6869;BME280;3473;42.604;23.496;2022-08-04T05:38:53;16421.56;;;-140.19;72.81
6869;BME280;3473;42.604;23.496;2022-08-04T05:40:29;16369.22;;;-140.19;73.21
6869;BME280;3473;42.604;23.496;2022-08-04T05:42:01;16440.97;;;-140.19;73.10
6869;BME280;3473;42.604;23.496;2022-08-04T05:43:36;16530.16;;;-140.19;72.68
6869;BME280;3473;42.604;23.496;2022-08-04T05:45:12;16485.56;;;-140.19;73.11
6869;BME280;3473;42.604;23.496;2022-08-04T05:46:48;16491.38;;;-140.19;71.70
6869;BME280;3473;42.604;23.496;2022-08-04T05:48:21;16537.91;;;-140.19;70.85
6869;BME280;3473;42.604;23.496;2022-08-04T05:49:55;16495.25;;;-140.19;69.84
6869;BME280;3473;42.604;23.496;2022-08-04T05:51:28;16541.78;;;-140.19;69.39
6869;BME280;3473;42.604;23.496;2022-08-04T05:53:00;16660.06;;;-140.19;69.76
6869;BME280;3473;42.604;23.496;2022-08-04T05:54:34;16590.25;;;-140.19;69.77
6869;BME280;3473;42.604;23.496;2022-08-04T05:56:07;16557.28;;;-140.19;69.94
6869;BME280;3473;42.604;23.496;2022-08-04T05:57:40;16675.56;;;-140.19;68.53
6869;BME280;3473;42.604;23.496;2022-08-04T05:59:14;16731.81;;;-140.19;66.32
6869;BME280;3473;42.604;23.496;2022-08-04T06:00:49;16791.91;;;-140.19;65.61
6869;BME280;3473;42.604;23.496;2022-08-04T06:02:22;16819.06;;;-140.19;65.00
6869;BME280;3473;42.604;23.496;2022-08-04T06:03:56;16937.34;;;-140.19;63.62
6869;BME280;3473;42.604;23.496;2022-08-04T06:05:29;17061.47;;;-140.19;63.01
6869;BME280;3473;42.604;23.496;2022-08-04T06:07:03;17129.34;;;-140.19;63.02
6869;BME280;3473;42.604;23.496;2022-08-04T06:08:34;17140.97;;;-140.19;61.40
6869;BME280;3473;42.604;23.496;2022-08-04T06:10:07;17189.47;;;-140.19;60.77
6869;BME280;3473;42.604;23.496;2022-08-04T06:11:40;17249.56;;;-140.19;59.70
6869;BME280;3473;42.604;23.496;2022-08-04T06:13:16;17379.53;;;-140.19;60.10
6869;BME280;3473;42.604;23.496;2022-08-04T06:14:53;17332.97;;;-140.19;59.32
6869;BME280;3473;42.604;23.496;2022-08-04T06:16:28;17459.03;;;-140.19;58.03
6869;BME280;3473;42.604;23.496;2022-08-04T06:18:05;17744.16;;;-140.19;57.27
6869;BME280;3473;42.604;23.496;2022-08-04T06:19:39;17532.75;;;-140.19;57.27
6869;BME280;3473;42.604;23.496;2022-08-04T06:21:12;17604.50;;;-140.19;56.39
6869;BME280;3473;42.604;23.496;2022-08-04T06:22:48;17583.16;;;-140.19;56.27
6869;BME280;3473;42.604;23.496;2022-08-04T06:24:23;17623.91;;;-140.19;56.43
6869;BME280;3473;42.604;23.496;2022-08-04T06:25:59;17705.38;;;-140.19;55.96
6869;BME280;3473;42.604;23.496;2022-08-04T06:27:32;17654.94;;;-140.19;56.36
6869;BME280;3473;42.604;23.496;2022-08-04T06:29:04;17030.44;;;-140.19;56.01
6869;BME280;3473;42.604;23.496;2022-08-04T06:30:44;17674.31;;;-140.19;56.98
6869;BME280;3473;42.604;23.496;2022-08-04T06:32:19;17670.44;;;-140.19;55.62
6869;BME280;3473;42.604;23.496;2022-08-04T06:33:59;17695.66;;;-140.19;57.80
6869;BME280;3473;42.604;23.496;2022-08-04T06:35:33;17697.59;;;-140.19;55.81
6869;BME280;3473;42.604;23.496;2022-08-04T06:37:06;17763.56;;;-140.19;54.46
6869;BME280;3473;42.604;23.496;2022-08-04T06:38:39;17782.94;;;-140.19;54.17
6869;BME280;3473;42.604;23.496;2022-08-04T06:40:13;17781.00;;;-140.19;55.42
6869;BME280;3473;42.604;23.496;2022-08-04T06:41:47;17833.38;;;-140.19;53.33
6869;BME280;3473;42.604;23.496;2022-08-04T06:43:20;17821.75;;;-140.19;54.50
6869;BME280;3473;42.604;23.496;2022-08-04T06:44:56;18040.94;;;-140.19;55.03
6869;BME280;3473;42.604;23.496;2022-08-04T06:46:30;17879.94;;;-140.19;52.38
6869;BME280;3473;42.604;23.496;2022-08-04T06:48:04;17860.53;;;-140.19;52.85
6869;BME280;3473;42.604;23.496;2022-08-04T06:49:37;17903.22;;;-140.19;52.29
6869;BME280;3473;42.604;23.496;2022-08-04T06:51:11;17932.31;;;-140.19;51.73
6869;BME280;3473;42.604;23.496;2022-08-04T06:52:44;17994.38;;;-140.19;51.24
6869;BME280;3473;42.604;23.496;2022-08-04T06:54:16;18058.41;;;-140.19;50.12
6869;BME280;3473;42.604;23.496;2022-08-04T06:55:49;18095.25;;;-140.19;49.62
6869;BME280;3473;42.604;23.496;2022-08-04T06:57:25;18114.66;;;-140.19;49.73
6869;BME280;3473;42.604;23.496;2022-08-04T06:58:58;18168.97;;;-140.19;48.94
6869;BME280;3473;42.604;23.496;2022-08-04T07:00:31;18112.72;;;-140.19;48.86
6869;BME280;3473;42.604;23.496;2022-08-04T07:02:10;18203.88;;;-140.19;48.68
6869;BME280;3473;42.604;23.496;2022-08-04T07:03:44;18143.75;;;-140.19;49.54
6869;BME280;3473;42.604;23.496;2022-08-04T07:05:17;18170.91;;;-140.19;49.62
6869;BME280;3473;42.604;23.496;2022-08-04T07:06:49;18209.72;;;-140.19;49.62
6869;BME280;3473;42.604;23.496;2022-08-04T07:08:21;18145.69;;;-140.19;49.85
6869;BME280;3473;42.604;23.496;2022-08-04T07:09:53;18304.78;;;-140.19;49.79
6869;BME280;3473;42.604;23.496;2022-08-04T07:11:26;18285.38;;;-140.19;48.47
6869;BME280;3473;42.604;23.496;2022-08-04T07:12:59;18209.72;;;-140.19;48.76
6869;BME280;3473;42.604;23.496;2022-08-04T07:14:31;18147.63;;;-140.19;50.58
6869;BME280;3473;42.604;23.496;2022-08-04T07:16:06;18227.16;;;-140.19;50.69
6869;BME280;3473;42.604;23.496;2022-08-04T07:17:40;18136.00;;;-140.19;50.70
6869;BME280;3473;42.604;23.496;2022-08-04T07:19:12;18159.28;;;-140.19;51.28
6869;BME280;3473;42.604;23.496;2022-08-04T07:20:45;18132.13;;;-140.19;52.27
6869;BME280;3473;42.604;23.496;2022-08-04T07:22:18;18147.63;;;-140.19;52.45
6869;BME280;3473;42.604;23.496;2022-08-04T07:23:52;18159.28;;;-140.19;51.87
6869;BME280;3473;42.604;23.496;2022-08-04T07:25:24;18198.06;;;-140.19;51.24
6869;BME280;3473;42.604;23.496;2022-08-04T07:26:57;18108.84;;;-140.19;51.57
6869;BME280;3473;42.604;23.496;2022-08-04T07:28:29;18159.28;;;-140.19;52.14
6869;BME280;3473;42.604;23.496;2022-08-04T07:30:01;17538.56;;;-140.19;51.27
6869;BME280;3473;42.604;23.496;2022-08-04T07:31:33;18172.84;;;-140.19;51.45
6869;BME280;3473;42.604;23.496;2022-08-04T07:33:06;18271.78;;;-140.19;52.95
6869;BME280;3473;42.604;23.496;2022-08-04T07:34:39;18271.78;;;-140.19;50.88
6869;BME280;3473;42.604;23.496;2022-08-04T07:36:12;18297.00;;;-140.19;51.11
6869;BME280;3473;42.604;23.496;2022-08-04T07:37:44;18318.34;;;-140.19;50.25
6869;BME280;3473;42.604;23.496;2022-08-04T07:39:16;18306.72;;;-140.19;50.07
6869;BME280;3473;42.604;23.496;2022-08-04T07:40:48;18362.97;;;-140.19;48.95
6869;BME280;3473;42.604;23.496;2022-08-04T07:42:21;18364.91;;;-140.19;49.07
6869;BME280;3473;42.604;23.496;2022-08-04T07:43:53;18316.41;;;-140.19;47.31
6869;BME280;3473;42.604;23.496;2022-08-04T07:45:25;18419.22;;;-140.19;46.37
6869;BME280;3473;42.604;23.496;2022-08-04T07:46:57;18403.72;;;-140.19;46.77
6869;BME280;3473;42.604;23.496;2022-08-04T07:48:30;18477.44;;;-140.19;47.12
6869;BME280;3473;42.604;23.496;2022-08-04T07:50:01;18423.09;;;-140.19;46.96
6869;BME280;3473;42.604;23.496;2022-08-04T07:51:34;18537.56;;;-140.19;45.18
6869;BME280;3473;42.604;23.496;2022-08-04T07:53:07;18496.84;;;-140.19;44.82
6869;BME280;3473;42.604;23.496;2022-08-04T07:54:40;18494.91;;;-140.19;44.31
6869;BME280;3473;42.604;23.496;2022-08-04T07:56:14;18508.47;;;-140.19;44.71
6869;BME280;3473;42.604;23.496;2022-08-04T07:57:46;18549.22;;;-140.19;45.00
6869;BME280;3473;42.604;23.496;2022-08-04T07:59:18;18589.97;;;-140.19;44.43
6869;BME280;3473;42.604;23.496;2022-08-04T08:00:54;18849.94;;;-140.19;43.90
6869;BME280;3473;42.604;23.496;2022-08-04T08:02:26;18564.75;;;-140.19;44.42
6869;BME280;3473;42.604;23.496;2022-08-04T08:04:00;18547.28;;;-140.19;44.15
6869;BME280;3473;42.604;23.496;2022-08-04T08:05:32;18489.06;;;-140.19;44.89
6869;BME280;3473;42.604;23.496;2022-08-04T08:07:05;18524.00;;;-140.19;45.53
6869;BME280;3473;42.604;23.496;2022-08-04T08:08:37;18498.78;;;-140.19;46.37
6869;BME280;3473;42.604;23.496;2022-08-04T08:10:11;18520.13;;;-140.19;47.00
6869;BME280;3473;42.604;23.496;2022-08-04T08:11:45;18450.28;;;-140.19;46.30
6869;BME280;3473;42.604;23.496;2022-08-04T08:13:17;18489.06;;;-140.19;44.80
6869;BME280;3473;42.604;23.496;2022-08-04T08:14:50;18556.97;;;-140.19;46.25
6869;BME280;3473;42.604;23.496;2022-08-04T08:16:22;18502.66;;;-140.19;46.40
6869;BME280;3473;42.604;23.496;2022-08-04T08:17:54;18461.91;;;-140.19;46.23
6869;BME280;3473;42.604;23.496;2022-08-04T08:19:28;18465.78;;;-140.19;47.30
6869;BME280;3473;42.604;23.496;2022-08-04T08:21:00;18500.72;;;-140.19;48.23
6869;BME280;3473;42.604;23.496;2022-08-04T08:22:31;18555.03;;;-140.19;46.46
6869;BME280;3473;42.604;23.496;2022-08-04T08:24:04;18506.53;;;-140.19;46.34
6869;BME280;3473;42.604;23.496;2022-08-04T08:25:36;18543.41;;;-140.19;45.34
6869;BME280;3473;42.604;23.496;2022-08-04T08:27:08;18518.19;;;-140.19;45.97
6869;BME280;3473;42.604;23.496;2022-08-04T08:28:40;18527.88;;;-140.19;45.62
6869;BME280;3473;42.604;23.496;2022-08-04T08:30:12;18520.13;;;-140.19;45.58
6869;BME280;3473;42.604;23.496;2022-08-04T08:31:43;18502.66;;;-140.19;45.91
6869;BME280;3473;42.604;23.496;2022-08-04T08:33:16;18533.69;;;-140.19;45.78
6869;BME280;3473;42.604;23.496;2022-08-04T08:34:51;18508.47;;;-140.19;45.61
6869;BME280;3473;42.604;23.496;2022-08-04T08:36:30;18525.94;;;-140.19;45.73
6869;BME280;3473;42.604;23.496;2022-08-04T08:38:05;18593.84;;;-140.19;45.70
6869;BME280;3473;42.604;23.496;2022-08-04T08:39:47;18539.50;;;-140.19;45.98
6869;BME280;3473;42.604;23.496;2022-08-04T08:41:39;18574.44;;;-140.19;45.29
6869;BME280;3473;42.604;23.496;2022-08-04T08:43:32;18605.47;;;-140.19;44.76
6869;BME280;3473;42.604;23.496;2022-08-04T08:45:48;18628.75;;;-140.19;43.58
6869;BME280;3473;42.604;23.496;2022-08-04T08:47:36;18572.50;;;-140.19;44.72
6869;BME280;3473;42.604;23.496;2022-08-04T08:49:46;18675.31;;;-140.19;45.46
6869;BME280;3473;42.604;23.496;2022-08-04T08:51:39;18904.28;;;-140.19;45.04
6869;BME280;3473;42.604;23.496;2022-08-04T08:53:33;18692.78;;;-140.19;44.44
6869;BME280;3473;42.604;23.496;2022-08-04T08:55:24;18663.69;;;-140.19;43.64
6869;BME280;3473;42.604;23.496;2022-08-04T08:57:31;18719.94;;;-140.19;44.05
6869;BME280;3473;42.604;23.496;2022-08-04T08:59:17;18754.88;;;-140.19;43.66
6869;BME280;3473;42.604;23.496;2022-08-04T09:01:03;18774.28;;;-140.19;42.21
6869;BME280;3473;42.604;23.496;2022-08-04T09:05:18;18859.66;;;-140.19;40.18
6869;BME280;3473;42.604;23.496;2022-08-04T09:07:05;18952.78;;;-140.19;38.77
6869;BME280;3473;42.604;23.496;2022-08-04T09:08:59;18948.91;;;-140.19;38.87
6869;BME280;3473;42.604;23.496;2022-08-04T09:10:39;19051.75;;;-140.19;38.85
6869;BME280;3473;42.604;23.496;2022-08-04T09:12:19;19109.97;;;-140.19;37.20